George Mason, Virginia
Current Conditions -  °F | °C
As of 4:07 AM on Monday 24 Nov 2014 (Local Time) from KDCA Reporting Station
Broken Clouds Broken Clouds  
Wind Chill: 61°   Ceiling: 3300
Heat Index: 61°   Visibility: 10mi
Dew Point: 55°   Wind: 17mph
Humidity: 82%   Direction: 180°S
Pressure: 29.66"   Gusts: NA
Location:  38.8059°N, 77.057°W
Report Text: KDCA 240907Z 18015KT 10SM SCT017 BKN033 BKN044 16/13 A2966 RMK AO2
Loading
Personal Weather Stations






























Interactive Weather Map New forecast layout! Learn more

10-Day Weather Forecast

Advertisements
Track Severe Weather on mobile